sensor_id;sensor_type;location;lat;lon;timestamp;temperature;humidity
36450;DHT22;22475;51.390;7.180;2023-05-10T00:00:31;17.20;94.00
36450;DHT22;22475;51.390;7.180;2023-05-10T00:02:57;17.20;94.00
36450;DHT22;22475;51.390;7.180;2023-05-10T00:05:24;17.20;94.00
36450;DHT22;22475;51.390;7.180;2023-05-10T00:07:51;17.20;94.00
36450;DHT22;22475;51.390;7.180;2023-05-10T00:10:18;17.20;94.00
36450;DHT22;22475;51.390;7.180;2023-05-10T00:12:44;17.20;94.00
36450;DHT22;22475;51.390;7.180;2023-05-10T00:15:11;17.20;94.00
36450;DHT22;22475;51.390;7.180;2023-05-10T00:17:39;17.20;94.00
36450;DHT22;22475;51.390;7.180;2023-05-10T00:20:07;17.20;94.00
36450;DHT22;22475;51.390;7.180;2023-05-10T00:22:37;17.20;94.00
36450;DHT22;22475;51.390;7.180;2023-05-10T00:25:04;17.20;94.00
36450;DHT22;22475;51.390;7.180;2023-05-10T00:27:31;17.20;94.00
36450;DHT22;22475;51.390;7.180;2023-05-10T00:29:58;17.20;94.00
36450;DHT22;22475;51.390;7.180;2023-05-10T00:32:25;17.20;94.00
36450;DHT22;22475;51.390;7.180;2023-05-10T00:34:53;17.20;94.00
36450;DHT22;22475;51.390;7.180;2023-05-10T00:37:20;17.20;94.00
36450;DHT22;22475;51.390;7.180;2023-05-10T00:39:47;17.20;94.00
36450;DHT22;22475;51.390;7.180;2023-05-10T00:42:13;17.20;94.00
36450;DHT22;22475;51.390;7.180;2023-05-10T00:44:40;17.20;94.00
36450;DHT22;22475;51.390;7.180;2023-05-10T00:47:07;17.20;94.00
36450;DHT22;22475;51.390;7.180;2023-05-10T00:49:34;17.20;94.00
36450;DHT22;22475;51.390;7.180;2023-05-10T00:52:03;17.20;94.00
36450;DHT22;22475;51.390;7.180;2023-05-10T00:54:30;17.20;94.00
36450;DHT22;22475;51.390;7.180;2023-05-10T00:56:57;17.20;94.00
36450;DHT22;22475;51.390;7.180;2023-05-10T00:59:24;17.20;94.00
36450;DHT22;22475;51.390;7.180;2023-05-10T01:01:51;17.20;94.00
36450;DHT22;22475;51.390;7.180;2023-05-10T01:04:18;17.20;94.00
36450;DHT22;22475;51.390;7.180;2023-05-10T01:06:51;17.20;94.10
36450;DHT22;22475;51.390;7.180;2023-05-10T01:09:19;17.20;94.00
36450;DHT22;22475;51.390;7.180;2023-05-10T01:11:46;17.20;94.10
36450;DHT22;22475;51.390;7.180;2023-05-10T01:14:15;17.10;94.00
36450;DHT22;22475;51.390;7.180;2023-05-10T01:16:45;17.20;94.10
36450;DHT22;22475;51.390;7.180;2023-05-10T01:19:18;17.20;94.10
36450;DHT22;22475;51.390;7.180;2023-05-10T01:21:50;17.20;94.10
36450;DHT22;22475;51.390;7.180;2023-05-10T01:25:01;17.20;94.10
36450;DHT22;22475;51.390;7.180;2023-05-10T01:27:58;17.10;94.10
36450;DHT22;22475;51.390;7.180;2023-05-10T01:33:35;17.20;94.10
36450;DHT22;22475;51.390;7.180;2023-05-10T01:36:11;17.10;94.00
36450;DHT22;22475;51.390;7.180;2023-05-10T01:38:42;17.10;94.00
36450;DHT22;22475;51.390;7.180;2023-05-10T01:41:16;17.20;94.10
36450;DHT22;22475;51.390;7.180;2023-05-10T01:43:51;17.10;94.10
36450;DHT22;22475;51.390;7.180;2023-05-10T01:46:24;17.10;94.10
36450;DHT22;22475;51.390;7.180;2023-05-10T01:48:57;17.10;94.10
36450;DHT22;22475;51.390;7.180;2023-05-10T01:51:29;17.10;94.10
36450;DHT22;22475;51.390;7.180;2023-05-10T01:54:02;17.10;94.10
36450;DHT22;22475;51.390;7.180;2023-05-10T01:56:31;17.10;94.10
36450;DHT22;22475;51.390;7.180;2023-05-10T01:59:00;17.10;94.10
36450;DHT22;22475;51.390;7.180;2023-05-10T02:01:27;17.10;94.10
36450;DHT22;22475;51.390;7.180;2023-05-10T02:03:56;17.10;94.10
36450;DHT22;22475;51.390;7.180;2023-05-10T02:06:24;17.10;94.10
36450;DHT22;22475;51.390;7.180;2023-05-10T02:08:53;17.10;94.10
36450;DHT22;22475;51.390;7.180;2023-05-10T02:11:20;17.10;94.10
36450;DHT22;22475;51.390;7.180;2023-05-10T02:13:49;17.10;94.10
36450;DHT22;22475;51.390;7.180;2023-05-10T02:16:17;17.10;94.10
36450;DHT22;22475;51.390;7.180;2023-05-10T02:18:45;17.10;94.10
36450;DHT22;22475;51.390;7.180;2023-05-10T02:21:15;17.10;94.10
36450;DHT22;22475;51.390;7.180;2023-05-10T02:23:43;17.10;94.10
36450;DHT22;22475;51.390;7.180;2023-05-10T02:26:11;17.10;94.10
36450;DHT22;22475;51.390;7.180;2023-05-10T02:28:40;17.10;94.10
36450;DHT22;22475;51.390;7.180;2023-05-10T02:31:09;17.10;94.10
36450;DHT22;22475;51.390;7.180;2023-05-10T02:33:37;17.10;94.10
36450;DHT22;22475;51.390;7.180;2023-05-10T02:36:07;17.10;94.10
36450;DHT22;22475;51.390;7.180;2023-05-10T02:38:36;17.10;94.10
36450;DHT22;22475;51.390;7.180;2023-05-10T02:41:04;17.10;94.10
36450;DHT22;22475;51.390;7.180;2023-05-10T02:43:32;17.10;94.10
36450;DHT22;22475;51.390;7.180;2023-05-10T02:45:59;17.10;94.10
36450;DHT22;22475;51.390;7.180;2023-05-10T02:48:26;17.10;94.10
36450;DHT22;22475;51.390;7.180;2023-05-10T02:50:55;17.10;94.10
36450;DHT22;22475;51.390;7.180;2023-05-10T02:53:28;17.10;94.10
36450;DHT22;22475;51.390;7.180;2023-05-10T02:56:00;17.10;94.10
36450;DHT22;22475;51.390;7.180;2023-05-10T02:58:29;17.10;94.10
36450;DHT22;22475;51.390;7.180;2023-05-10T03:00:56;17.10;94.10
36450;DHT22;22475;51.390;7.180;2023-05-10T03:03:22;17.10;94.10
36450;DHT22;22475;51.390;7.180;2023-05-10T03:05:49;17.10;94.10
36450;DHT22;22475;51.390;7.180;2023-05-10T03:08:19;17.10;94.10
36450;DHT22;22475;51.390;7.180;2023-05-10T03:10:54;17.10;94.10
36450;DHT22;22475;51.390;7.180;2023-05-10T03:13:29;17.10;94.10
36450;DHT22;22475;51.390;7.180;2023-05-10T03:16:08;17.10;94.10
36450;DHT22;22475;51.390;7.180;2023-05-10T03:18:42;17.10;94.00
36450;DHT22;22475;51.390;7.180;2023-05-10T03:21:11;17.10;94.00
36450;DHT22;22475;51.390;7.180;2023-05-10T03:23:43;17.10;94.00
36450;DHT22;22475;51.390;7.180;2023-05-10T03:26:13;17.10;94.00
36450;DHT22;22475;51.390;7.180;2023-05-10T03:28:44;17.10;94.00
36450;DHT22;22475;51.390;7.180;2023-05-10T03:31:12;17.10;94.00
36450;DHT22;22475;51.390;7.180;2023-05-10T03:33:46;17.10;94.00
36450;DHT22;22475;51.390;7.180;2023-05-10T03:36:13;17.00;94.00
36450;DHT22;22475;51.390;7.180;2023-05-10T03:38:42;17.00;94.00
36450;DHT22;22475;51.390;7.180;2023-05-10T03:41:08;17.10;94.00
36450;DHT22;22475;51.390;7.180;2023-05-10T03:43:35;17.10;94.10
36450;DHT22;22475;51.390;7.180;2023-05-10T03:46:04;17.00;94.00
36450;DHT22;22475;51.390;7.180;2023-05-10T03:48:32;17.10;94.10
36450;DHT22;22475;51.390;7.180;2023-05-10T03:50:59;17.00;94.10
36450;DHT22;22475;51.390;7.180;2023-05-10T03:53:26;17.00;94.10
36450;DHT22;22475;51.390;7.180;2023-05-10T03:55:53;17.00;94.40
36450;DHT22;22475;51.390;7.180;2023-05-10T03:58:20;17.00;94.10
36450;DHT22;22475;51.390;7.180;2023-05-10T04:00:47;17.00;94.40
36450;DHT22;22475;51.390;7.180;2023-05-10T04:03:15;17.00;94.10
36450;DHT22;22475;51.390;7.180;2023-05-10T04:05:42;17.10;94.10
36450;DHT22;22475;51.390;7.180;2023-05-10T04:08:09;17.00;94.00
36450;DHT22;22475;51.390;7.180;2023-05-10T04:10:36;17.00;94.00
36450;DHT22;22475;51.390;7.180;2023-05-10T04:13:02;17.00;94.00
36450;DHT22;22475;51.390;7.180;2023-05-10T04:15:29;17.00;94.00
36450;DHT22;22475;51.390;7.180;2023-05-10T04:17:56;17.00;94.00
36450;DHT22;22475;51.390;7.180;2023-05-10T04:20:24;17.00;94.00
36450;DHT22;22475;51.390;7.180;2023-05-10T04:22:51;17.00;94.10
36450;DHT22;22475;51.390;7.180;2023-05-10T04:25:17;17.00;94.10
36450;DHT22;22475;51.390;7.180;2023-05-10T04:27:44;17.00;94.10
36450;DHT22;22475;51.390;7.180;2023-05-10T04:30:11;17.00;94.10
36450;DHT22;22475;51.390;7.180;2023-05-10T04:32:38;17.00;94.10
36450;DHT22;22475;51.390;7.180;2023-05-10T04:35:05;17.00;94.10
36450;DHT22;22475;51.390;7.180;2023-05-10T04:37:33;17.00;94.10
36450;DHT22;22475;51.390;7.180;2023-05-10T04:40:00;17.00;94.10
36450;DHT22;22475;51.390;7.180;2023-05-10T04:42:28;17.00;94.10
36450;DHT22;22475;51.390;7.180;2023-05-10T04:44:55;17.00;94.50
36450;DHT22;22475;51.390;7.180;2023-05-10T04:47:22;17.00;94.10
36450;DHT22;22475;51.390;7.180;2023-05-10T04:49:48;17.00;94.10
36450;DHT22;22475;51.390;7.180;2023-05-10T04:52:15;17.00;94.10
36450;DHT22;22475;51.390;7.180;2023-05-10T04:54:44;17.00;94.10
36450;DHT22;22475;51.390;7.180;2023-05-10T04:57:11;17.00;94.20
36450;DHT22;22475;51.390;7.180;2023-05-10T04:59:38;17.00;94.20
36450;DHT22;22475;51.390;7.180;2023-05-10T05:02:05;17.00;94.20
36450;DHT22;22475;51.390;7.180;2023-05-10T05:04:32;17.00;94.20
36450;DHT22;22475;51.390;7.180;2023-05-10T05:06:58;17.00;94.20
36450;DHT22;22475;51.390;7.180;2023-05-10T05:09:25;17.00;94.20
36450;DHT22;22475;51.390;7.180;2023-05-10T05:11:53;17.00;94.20
36450;DHT22;22475;51.390;7.180;2023-05-10T05:14:20;17.00;94.20
36450;DHT22;22475;51.390;7.180;2023-05-10T05:16:47;17.00;94.20
36450;DHT22;22475;51.390;7.180;2023-05-10T05:19:14;17.00;94.20
36450;DHT22;22475;51.390;7.180;2023-05-10T05:21:40;17.00;94.20
36450;DHT22;22475;51.390;7.180;2023-05-10T05:24:08;17.00;94.20
36450;DHT22;22475;51.390;7.180;2023-05-10T05:26:35;17.00;94.20
36450;DHT22;22475;51.390;7.180;2023-05-10T05:29:03;17.00;94.20
36450;DHT22;22475;51.390;7.180;2023-05-10T05:31:30;17.00;94.20
36450;DHT22;22475;51.390;7.180;2023-05-10T05:33:57;17.00;94.20
36450;DHT22;22475;51.390;7.180;2023-05-10T05:36:24;17.00;94.20
36450;DHT22;22475;51.390;7.180;2023-05-10T05:38:50;17.00;94.20
36450;DHT22;22475;51.390;7.180;2023-05-10T05:41:17;17.00;94.20
36450;DHT22;22475;51.390;7.180;2023-05-10T05:43:44;17.00;94.20
36450;DHT22;22475;51.390;7.180;2023-05-10T05:46:12;17.00;94.20
36450;DHT22;22475;51.390;7.180;2023-05-10T05:48:38;17.00;94.20
36450;DHT22;22475;51.390;7.180;2023-05-10T05:51:05;17.00;94.20
36450;DHT22;22475;51.390;7.180;2023-05-10T05:53:32;17.00;94.20
36450;DHT22;22475;51.390;7.180;2023-05-10T05:55:59;17.00;94.20
36450;DHT22;22475;51.390;7.180;2023-05-10T05:58:25;17.00;94.20
36450;DHT22;22475;51.390;7.180;2023-05-10T06:00:53;17.00;94.20
36450;DHT22;22475;51.390;7.180;2023-05-10T06:03:21;17.00;94.20
36450;DHT22;22475;51.390;7.180;2023-05-10T06:05:48;17.00;94.20
36450;DHT22;22475;51.390;7.180;2023-05-10T06:08:15;17.00;94.20
36450;DHT22;22475;51.390;7.180;2023-05-10T06:10:41;17.00;94.20
36450;DHT22;22475;51.390;7.180;2023-05-10T06:13:08;17.00;94.20
36450;DHT22;22475;51.390;7.180;2023-05-10T06:15:35;17.00;94.20
36450;DHT22;22475;51.390;7.180;2023-05-10T06:18:02;17.00;94.20
36450;DHT22;22475;51.390;7.180;2023-05-10T06:20:30;17.00;94.20
36450;DHT22;22475;51.390;7.180;2023-05-10T06:22:57;17.00;94.20
36450;DHT22;22475;51.390;7.180;2023-05-10T06:25:24;17.00;94.20
36450;DHT22;22475;51.390;7.180;2023-05-10T06:27:51;17.00;94.20
36450;DHT22;22475;51.390;7.180;2023-05-10T06:30:22;17.00;94.20
36450;DHT22;22475;51.390;7.180;2023-05-10T06:32:52;17.00;94.20
36450;DHT22;22475;51.390;7.180;2023-05-10T06:35:19;17.00;94.20
36450;DHT22;22475;51.390;7.180;2023-05-10T06:37:47;17.00;94.30
36450;DHT22;22475;51.390;7.180;2023-05-10T06:40:14;17.00;94.30
36450;DHT22;22475;51.390;7.180;2023-05-10T06:42:41;17.00;94.30
36450;DHT22;22475;51.390;7.180;2023-05-10T06:45:10;17.00;94.30
36450;DHT22;22475;51.390;7.180;2023-05-10T06:47:38;17.00;94.30
36450;DHT22;22475;51.390;7.180;2023-05-10T06:50:05;17.00;94.30
36450;DHT22;22475;51.390;7.180;2023-05-10T06:52:32;17.00;94.30
36450;DHT22;22475;51.390;7.180;2023-05-10T06:55:00;17.00;94.30
36450;DHT22;22475;51.390;7.180;2023-05-10T06:57:27;17.00;94.30
36450;DHT22;22475;51.390;7.180;2023-05-10T06:59:54;17.00;94.30
36450;DHT22;22475;51.390;7.180;2023-05-10T07:02:22;17.00;94.40
36450;DHT22;22475;51.390;7.180;2023-05-10T07:04:49;17.00;94.40
36450;DHT22;22475;51.390;7.180;2023-05-10T07:07:17;17.00;94.40
36450;DHT22;22475;51.390;7.180;2023-05-10T07:09:44;17.00;94.40
36450;DHT22;22475;51.390;7.180;2023-05-10T07:12:12;17.00;94.40
36450;DHT22;22475;51.390;7.180;2023-05-10T07:14:38;17.00;94.40
36450;DHT22;22475;51.390;7.180;2023-05-10T07:17:05;17.00;94.40
36450;DHT22;22475;51.390;7.180;2023-05-10T07:19:32;17.00;94.40
36450;DHT22;22475;51.390;7.180;2023-05-10T07:21:59;17.00;94.40
36450;DHT22;22475;51.390;7.180;2023-05-10T07:24:25;17.00;94.40
36450;DHT22;22475;51.390;7.180;2023-05-10T07:26:52;17.00;94.40
36450;DHT22;22475;51.390;7.180;2023-05-10T07:29:20;17.00;94.40
36450;DHT22;22475;51.390;7.180;2023-05-10T07:31:47;17.00;94.40
36450;DHT22;22475;51.390;7.180;2023-05-10T07:34:13;17.00;94.40
36450;DHT22;22475;51.390;7.180;2023-05-10T07:36:40;17.00;94.40
36450;DHT22;22475;51.390;7.180;2023-05-10T07:39:07;17.00;94.40
36450;DHT22;22475;51.390;7.180;2023-05-10T07:41:34;17.00;94.40
36450;DHT22;22475;51.390;7.180;2023-05-10T07:44:03;17.10;94.50
36450;DHT22;22475;51.390;7.180;2023-05-10T07:46:31;17.00;94.40
36450;DHT22;22475;51.390;7.180;2023-05-10T07:48:58;17.00;94.50
36450;DHT22;22475;51.390;7.180;2023-05-10T07:51:24;17.00;94.50
36450;DHT22;22475;51.390;7.180;2023-05-10T07:53:51;17.00;94.50
36450;DHT22;22475;51.390;7.180;2023-05-10T07:56:23;17.00;94.50
36450;DHT22;22475;51.390;7.180;2023-05-10T07:58:50;17.00;94.50
36450;DHT22;22475;51.390;7.180;2023-05-10T08:01:17;17.00;94.50
36450;DHT22;22475;51.390;7.180;2023-05-10T08:03:45;17.00;94.50
36450;DHT22;22475;51.390;7.180;2023-05-10T08:06:12;17.00;94.50
36450;DHT22;22475;51.390;7.180;2023-05-10T08:08:39;17.00;94.50
36450;DHT22;22475;51.390;7.180;2023-05-10T08:11:06;17.00;94.50
36450;DHT22;22475;51.390;7.180;2023-05-10T08:13:33;17.00;94.50
36450;DHT22;22475;51.390;7.180;2023-05-10T08:16:00;17.00;94.50
36450;DHT22;22475;51.390;7.180;2023-05-10T08:18:26;17.00;94.50
36450;DHT22;22475;51.390;7.180;2023-05-10T08:20:55;17.00;94.50
36450;DHT22;22475;51.390;7.180;2023-05-10T08:23:21;17.00;94.50
36450;DHT22;22475;51.390;7.180;2023-05-10T08:25:48;17.00;94.50
36450;DHT22;22475;51.390;7.180;2023-05-10T08:28:15;17.00;94.50
36450;DHT22;22475;51.390;7.180;2023-05-10T08:30:41;17.00;94.50
36450;DHT22;22475;51.390;7.180;2023-05-10T08:33:08;17.00;94.60
36450;DHT22;22475;51.390;7.180;2023-05-10T08:35:35;17.00;94.60
36450;DHT22;22475;51.390;7.180;2023-05-10T08:38:03;17.00;94.60
36450;DHT22;22475;51.390;7.180;2023-05-10T08:40:30;17.00;94.60
36450;DHT22;22475;51.390;7.180;2023-05-10T08:43:01;17.00;94.60
36450;DHT22;22475;51.390;7.180;2023-05-10T08:45:32;17.00;94.60
36450;DHT22;22475;51.390;7.180;2023-05-10T08:48:01;17.00;94.60
36450;DHT22;22475;51.390;7.180;2023-05-10T08:50:28;17.00;94.60
36450;DHT22;22475;51.390;7.180;2023-05-10T08:52:59;17.00;94.60
36450;DHT22;22475;51.390;7.180;2023-05-10T08:55:27;17.00;94.60
36450;DHT22;22475;51.390;7.180;2023-05-10T08:57:55;17.00;94.60
36450;DHT22;22475;51.390;7.180;2023-05-10T09:00:22;17.00;94.60
36450;DHT22;22475;51.390;7.180;2023-05-10T09:02:50;17.00;94.60
36450;DHT22;22475;51.390;7.180;2023-05-10T09:05:17;17.00;94.60
36450;DHT22;22475;51.390;7.180;2023-05-10T09:07:43;17.00;94.60
36450;DHT22;22475;51.390;7.180;2023-05-10T09:10:11;17.00;94.60
36450;DHT22;22475;51.390;7.180;2023-05-10T09:12:41;17.00;94.90
36450;DHT22;22475;51.390;7.180;2023-05-10T09:15:09;17.00;94.60
36450;DHT22;22475;51.390;7.180;2023-05-10T09:17:37;17.00;94.60
36450;DHT22;22475;51.390;7.180;2023-05-10T09:20:06;17.00;94.60
36450;DHT22;22475;51.390;7.180;2023-05-10T09:22:33;17.00;94.60
36450;DHT22;22475;51.390;7.180;2023-05-10T09:25:04;17.00;94.60
36450;DHT22;22475;51.390;7.180;2023-05-10T09:27:32;17.00;94.60
36450;DHT22;22475;51.390;7.180;2023-05-10T09:30:00;17.00;94.60
36450;DHT22;22475;51.390;7.180;2023-05-10T09:32:36;17.00;94.60
36450;DHT22;22475;51.390;7.180;2023-05-10T09:35:10;17.00;94.60
36450;DHT22;22475;51.390;7.180;2023-05-10T09:37:38;17.00;94.60
36450;DHT22;22475;51.390;7.180;2023-05-10T09:40:07;17.00;94.60
36450;DHT22;22475;51.390;7.180;2023-05-10T09:42:34;17.00;94.60
36450;DHT22;22475;51.390;7.180;2023-05-10T09:45:07;17.00;94.60
36450;DHT22;22475;51.390;7.180;2023-05-10T09:47:34;17.00;94.60
36450;DHT22;22475;51.390;7.180;2023-05-10T09:50:01;17.00;94.50
36450;DHT22;22475;51.390;7.180;2023-05-10T09:52:30;17.00;94.50
36450;DHT22;22475;51.390;7.180;2023-05-10T09:55:00;17.00;94.50
36450;DHT22;22475;51.390;7.180;2023-05-10T09:57:29;17.00;94.50
36450;DHT22;22475;51.390;7.180;2023-05-10T09:59:56;17.00;94.50
36450;DHT22;22475;51.390;7.180;2023-05-10T10:02:29;17.00;94.50
36450;DHT22;22475;51.390;7.180;2023-05-10T10:04:56;17.00;94.50
36450;DHT22;22475;51.390;7.180;2023-05-10T10:07:23;17.00;94.50
36450;DHT22;22475;51.390;7.180;2023-05-10T10:09:52;17.00;94.50
36450;DHT22;22475;51.390;7.180;2023-05-10T10:12:19;17.00;94.50
36450;DHT22;22475;51.390;7.180;2023-05-10T10:14:46;17.00;94.50
36450;DHT22;22475;51.390;7.180;2023-05-10T10:17:15;17.00;94.50
36450;DHT22;22475;51.390;7.180;2023-05-10T10:19:43;17.00;94.50
36450;DHT22;22475;51.390;7.180;2023-05-10T10:22:11;17.00;94.50
36450;DHT22;22475;51.390;7.180;2023-05-10T10:24:38;17.00;94.50
36450;DHT22;22475;51.390;7.180;2023-05-10T10:27:22;17.00;94.50
36450;DHT22;22475;51.390;7.180;2023-05-10T10:29:58;17.00;94.50
36450;DHT22;22475;51.390;7.180;2023-05-10T10:32:33;17.00;94.40
36450;DHT22;22475;51.390;7.180;2023-05-10T10:35:06;17.00;94.40
36450;DHT22;22475;51.390;7.180;2023-05-10T10:37:44;17.00;94.40
36450;DHT22;22475;51.390;7.180;2023-05-10T10:40:24;17.00;94.40
36450;DHT22;22475;51.390;7.180;2023-05-10T10:42:52;17.00;94.30
36450;DHT22;22475;51.390;7.180;2023-05-10T10:45:20;17.00;94.30
36450;DHT22;22475;51.390;7.180;2023-05-10T10:47:47;17.00;94.30
36450;DHT22;22475;51.390;7.180;2023-05-10T10:50:16;17.00;94.40
36450;DHT22;22475;51.390;7.180;2023-05-10T10:52:43;17.00;94.40
36450;DHT22;22475;51.390;7.180;2023-05-10T10:55:11;17.00;94.40
36450;DHT22;22475;51.390;7.180;2023-05-10T10:57:46;17.00;94.40
36450;DHT22;22475;51.390;7.180;2023-05-10T11:00:25;17.00;94.40
36450;DHT22;22475;51.390;7.180;2023-05-10T11:02:54;17.00;94.40
36450;DHT22;22475;51.390;7.180;2023-05-10T11:05:37;17.00;94.40
36450;DHT22;22475;51.390;7.180;2023-05-10T11:08:13;17.00;94.30
36450;DHT22;22475;51.390;7.180;2023-05-10T11:10:53;17.00;94.30
36450;DHT22;22475;51.390;7.180;2023-05-10T11:13:30;17.00;94.30
36450;DHT22;22475;51.390;7.180;2023-05-10T11:15:58;17.00;94.40
36450;DHT22;22475;51.390;7.180;2023-05-10T11:18:26;17.00;94.30
36450;DHT22;22475;51.390;7.180;2023-05-10T11:20:58;17.00;94.30
36450;DHT22;22475;51.390;7.180;2023-05-10T11:23:30;17.00;94.30
36450;DHT22;22475;51.390;7.180;2023-05-10T11:25:59;17.00;94.30
36450;DHT22;22475;51.390;7.180;2023-05-10T11:28:26;17.00;94.30
36450;DHT22;22475;51.390;7.180;2023-05-10T11:30:54;17.00;94.30
36450;DHT22;22475;51.390;7.180;2023-05-10T11:33:21;17.00;94.30
36450;DHT22;22475;51.390;7.180;2023-05-10T11:35:48;17.00;94.30
36450;DHT22;22475;51.390;7.180;2023-05-10T11:38:16;17.00;94.30
36450;DHT22;22475;51.390;7.180;2023-05-10T11:40:43;17.00;94.30
36450;DHT22;22475;51.390;7.180;2023-05-10T11:43:10;17.00;94.70
36450;DHT22;22475;51.390;7.180;2023-05-10T11:45:38;17.00;94.30
36450;DHT22;22475;51.390;7.180;2023-05-10T11:48:06;17.00;94.30
36450;DHT22;22475;51.390;7.180;2023-05-10T11:50:33;17.00;94.30
36450;DHT22;22475;51.390;7.180;2023-05-10T11:52:59;17.00;94.30
36450;DHT22;22475;51.390;7.180;2023-05-10T11:55:27;17.00;94.30
36450;DHT22;22475;51.390;7.180;2023-05-10T11:58:00;17.00;94.30
36450;DHT22;22475;51.390;7.180;2023-05-10T12:00:27;17.00;94.30
36450;DHT22;22475;51.390;7.180;2023-05-10T12:02:54;17.00;94.30
36450;DHT22;22475;51.390;7.180;2023-05-10T12:05:21;17.00;94.30
36450;DHT22;22475;51.390;7.180;2023-05-10T12:07:48;17.00;94.20
36450;DHT22;22475;51.390;7.180;2023-05-10T12:10:15;17.00;94.20
36450;DHT22;22475;51.390;7.180;2023-05-10T12:12:45;17.00;94.20
36450;DHT22;22475;51.390;7.180;2023-05-10T12:15:17;17.00;94.20
36450;DHT22;22475;51.390;7.180;2023-05-10T12:17:44;17.00;94.20
36450;DHT22;22475;51.390;7.180;2023-05-10T12:20:16;17.00;94.40
36450;DHT22;22475;51.390;7.180;2023-05-10T12:22:47;17.00;94.20
36450;DHT22;22475;51.390;7.180;2023-05-10T12:25:15;17.00;94.20
36450;DHT22;22475;51.390;7.180;2023-05-10T12:27:49;17.00;94.20
36450;DHT22;22475;51.390;7.180;2023-05-10T12:30:21;17.00;94.20
36450;DHT22;22475;51.390;7.180;2023-05-10T12:32:48;17.00;94.20
36450;DHT22;22475;51.390;7.180;2023-05-10T12:35:15;17.00;94.20
36450;DHT22;22475;51.390;7.180;2023-05-10T12:37:42;17.00;94.20
36450;DHT22;22475;51.390;7.180;2023-05-10T12:40:10;17.00;94.20
36450;DHT22;22475;51.390;7.180;2023-05-10T12:42:38;17.00;94.20
36450;DHT22;22475;51.390;7.180;2023-05-10T12:45:08;17.00;94.20
36450;DHT22;22475;51.390;7.180;2023-05-10T12:47:35;17.00;94.20
36450;DHT22;22475;51.390;7.180;2023-05-10T12:50:02;17.00;94.20
36450;DHT22;22475;51.390;7.180;2023-05-10T12:52:29;17.00;94.20
36450;DHT22;22475;51.390;7.180;2023-05-10T12:54:57;17.00;94.20
36450;DHT22;22475;51.390;7.180;2023-05-10T12:57:24;17.00;94.20
36450;DHT22;22475;51.390;7.180;2023-05-10T12:59:51;17.00;94.20
36450;DHT22;22475;51.390;7.180;2023-05-10T13:02:19;17.00;94.20
36450;DHT22;22475;51.390;7.180;2023-05-10T13:04:46;17.00;94.20
36450;DHT22;22475;51.390;7.180;2023-05-10T13:07:13;17.00;94.20
36450;DHT22;22475;51.390;7.180;2023-05-10T13:09:40;17.00;94.20
36450;DHT22;22475;51.390;7.180;2023-05-10T13:12:07;17.00;94.20
36450;DHT22;22475;51.390;7.180;2023-05-10T13:14:33;17.00;94.20
36450;DHT22;22475;51.390;7.180;2023-05-10T13:17:00;17.00;94.20
36450;DHT22;22475;51.390;7.180;2023-05-10T13:19:28;17.00;94.20
36450;DHT22;22475;51.390;7.180;2023-05-10T13:21:55;17.00;94.20
36450;DHT22;22475;51.390;7.180;2023-05-10T13:24:22;17.00;94.20
36450;DHT22;22475;51.390;7.180;2023-05-10T13:26:48;17.00;94.20
36450;DHT22;22475;51.390;7.180;2023-05-10T13:29:15;17.00;94.20
36450;DHT22;22475;51.390;7.180;2023-05-10T13:31:43;17.00;94.20
36450;DHT22;22475;51.390;7.180;2023-05-10T13:34:10;17.00;94.20
36450;DHT22;22475;51.390;7.180;2023-05-10T13:36:38;17.00;94.20
36450;DHT22;22475;51.390;7.180;2023-05-10T13:39:05;17.00;94.20
36450;DHT22;22475;51.390;7.180;2023-05-10T13:41:32;17.00;94.20
36450;DHT22;22475;51.390;7.180;2023-05-10T13:43:59;17.10;94.20
36450;DHT22;22475;51.390;7.180;2023-05-10T13:46:26;17.00;94.20
36450;DHT22;22475;51.390;7.180;2023-05-10T13:48:53;17.10;94.20
36450;DHT22;22475;51.390;7.180;2023-05-10T13:51:19;17.00;94.10
36450;DHT22;22475;51.390;7.180;2023-05-10T13:53:47;17.00;94.10
36450;DHT22;22475;51.390;7.180;2023-05-10T13:56:14;17.00;94.10
36450;DHT22;22475;51.390;7.180;2023-05-10T13:58:41;17.00;94.10
36450;DHT22;22475;51.390;7.180;2023-05-10T14:01:08;17.00;94.10
36450;DHT22;22475;51.390;7.180;2023-05-10T14:03:35;17.00;94.10
36450;DHT22;22475;51.390;7.180;2023-05-10T14:06:01;17.10;94.10
36450;DHT22;22475;51.390;7.180;2023-05-10T14:08:28;17.00;94.10
36450;DHT22;22475;51.390;7.180;2023-05-10T14:10:56;17.10;94.10
36450;DHT22;22475;51.390;7.180;2023-05-10T14:13:23;17.10;94.10
36450;DHT22;22475;51.390;7.180;2023-05-10T14:15:52;17.10;94.10
36450;DHT22;22475;51.390;7.180;2023-05-10T14:18:18;17.10;94.10
36450;DHT22;22475;51.390;7.180;2023-05-10T14:20:45;17.10;94.10
36450;DHT22;22475;51.390;7.180;2023-05-10T14:23:12;17.00;94.10
36450;DHT22;22475;51.390;7.180;2023-05-10T14:25:40;17.00;94.10
36450;DHT22;22475;51.390;7.180;2023-05-10T14:28:08;17.10;94.10
36450;DHT22;22475;51.390;7.180;2023-05-10T14:30:35;17.10;94.10
36450;DHT22;22475;51.390;7.180;2023-05-10T14:33:02;17.10;94.10
36450;DHT22;22475;51.390;7.180;2023-05-10T14:35:29;17.10;94.10
36450;DHT22;22475;51.390;7.180;2023-05-10T14:37:57;17.10;94.10
36450;DHT22;22475;51.390;7.180;2023-05-10T14:40:24;17.10;94.10
36450;DHT22;22475;51.390;7.180;2023-05-10T14:42:51;17.10;94.00
36450;DHT22;22475;51.390;7.180;2023-05-10T14:45:20;17.10;94.00
36450;DHT22;22475;51.390;7.180;2023-05-10T14:47:48;17.10;94.00
36450;DHT22;22475;51.390;7.180;2023-05-10T14:50:15;17.10;94.00
36450;DHT22;22475;51.390;7.180;2023-05-10T14:52:42;17.10;94.00
36450;DHT22;22475;51.390;7.180;2023-05-10T14:55:09;17.10;94.00
36450;DHT22;22475;51.390;7.180;2023-05-10T14:57:36;17.10;94.00
36450;DHT22;22475;51.390;7.180;2023-05-10T15:00:04;17.10;94.00
36450;DHT22;22475;51.390;7.180;2023-05-10T15:02:32;17.10;94.00
36450;DHT22;22475;51.390;7.180;2023-05-10T15:04:59;17.10;94.00
36450;DHT22;22475;51.390;7.180;2023-05-10T15:07:25;17.10;94.00
36450;DHT22;22475;51.390;7.180;2023-05-10T15:09:52;17.10;94.00
36450;DHT22;22475;51.390;7.180;2023-05-10T15:12:19;17.10;94.00
36450;DHT22;22475;51.390;7.180;2023-05-10T15:14:46;17.10;94.00
36450;DHT22;22475;51.390;7.180;2023-05-10T15:17:13;17.10;94.00
36450;DHT22;22475;51.390;7.180;2023-05-10T15:19:41;17.10;94.00
36450;DHT22;22475;51.390;7.180;2023-05-10T15:22:08;17.10;94.00
36450;DHT22;22475;51.390;7.180;2023-05-10T15:24:35;17.10;94.00
36450;DHT22;22475;51.390;7.180;2023-05-10T15:27:01;17.10;94.00
36450;DHT22;22475;51.390;7.180;2023-05-10T15:29:29;17.10;94.00
36450;DHT22;22475;51.390;7.180;2023-05-10T15:31:57;17.10;94.00
36450;DHT22;22475;51.390;7.180;2023-05-10T15:34:23;17.10;94.00
36450;DHT22;22475;51.390;7.180;2023-05-10T15:36:51;17.10;94.00
36450;DHT22;22475;51.390;7.180;2023-05-10T15:39:18;17.10;94.00